• Join FlightAware (Why Join?)
  • Login
  • US Flag 
05:21PM EDT


 

Airport Tracker/Info


-or-


 

Live Flight TrackerFlight Track Log ✈ PDT4456 ✈ 09-Jun-2013 ✈ KSYR - KBOS

Flight Track Log - Related Links

Times and Time Zones

All times are in EDT time to prevent confusion due to time zone crossing. See the PDT4456 flight status page for this flight to view local times or setup timezone preferences in your user account.

Time Position Orientation Groundspeed Altitude Reporting Facility
EDT Latitude Longitude Course Direction KTS MPH feet Rate Location/Type
05:27PM 43.1078 -76.1261 258° West 118 136 1,000  Level Boston Center
05:28PM 43.1025 -76.1600 258° West 126 145 2,100 1,320 Climbing Boston Center
05:30PM 43.0669 -76.0983 128° Southeast 143 165 4,300 1,320 Climbing Boston Center
05:31PM 43.0544 -76.0378 106° East 156 180 5,900 1,260 Climbing Boston Center
05:32PM 43.0456 -75.9889 104° East 162 186 6,900 1,320 Climbing Boston Center
05:33PM 43.0331 -75.9142 103° East 162 186 8,600 1,440 Climbing Boston Center
05:34PM 43.0289 -75.8458 95° East 167 192 9,800 1,080 Climbing Boston Center
05:35PM 43.0225 -75.7772 97° East 178 205 11,000 1,140 Climbing Boston Center
05:36PM 43.0128 -75.6889 99° East 183 211 12,400 1,200 Climbing Boston Center
05:37PM 43.0044 -75.6117 98° East 189 217 13,500 960 Climbing Boston Center
05:38PM 42.9983 -75.5289 96° East 200 230 14,400 840 Climbing Boston Center
05:39PM 42.9858 -75.4544 103° East 215 247 15,200 900 Climbing Boston Center
05:40PM 42.9717 -75.3517 101° East 225 259 16,200 900 Climbing Boston Center
05:41PM 42.9594 -75.2631 101° East 225 259 17,000 360 Climbing Boston Center
05:42PM 42.9408 -75.1686 105° East 232 267 17,000  Level Boston Center
05:44PM 42.9103 -74.9603 101° East 272 313 17,000  Level Boston Center
05:45PM 42.8958 -74.8519 100° East 283 326 17,000  Level Boston Center
05:46PM 42.8794 -74.7381 101° East 289 333 17,000  Level Boston Center
05:47PM 42.8650 -74.6297 100° East 294 338 17,000  Level Boston Center
05:48PM 42.8483 -74.5189 102° East 294 338 17,000  Level Boston Center
05:49PM 42.8314 -74.4078 102° East 294 338 17,000  Level Boston Center
05:50PM 42.8167 -74.2969 100° East 293 337 17,000  Level Boston Center
05:51PM 42.8017 -74.1889 101° East 293 337 17,000  Level Boston Center
05:52PM 42.7828 -74.0611 101° East 293 337 17,000  Level Boston Center
05:53PM 42.7697 -73.9533 99° East 293 337 17,000  Level Boston Center
05:54PM 42.7522 -73.8425 102° East 293 337 17,000  Level Boston Center
05:55PM 42.7475 -73.7294 93° East 293 337 17,000  Level Boston Center
05:56PM 42.7592 -73.6164 82° East 302 348 17,000  Level Boston Center
05:57PM 42.7664 -73.5064 85° East 295 339 17,000  Level Boston Center
05:58PM 42.7736 -73.3961 85° East 295 339 17,000  Level Boston Center
05:59PM 42.7642 -73.2856 97° East 289 333 17,000  Level Boston Center
06:00PM 42.7461 -73.1781 103° East 289 333 17,100  Climbing Boston Center
06:01PM 42.7258 -73.0647 104° East 297 342 17,100  Level Boston Center
06:02PM 42.7078 -72.9572 103° East 297 342 17,100  Level Boston Center
06:03PM 42.6853 -72.8242 103° East 297 342 17,100  Level Boston Center
06:04PM 42.6669 -72.7169 103° East 297 342 17,100  Level Boston Center
06:05PM 42.6483 -72.6039 103° East 297 342 17,100 -420 Level Boston Center
06:06PM 42.6233 -72.4711 104° East 297 342 16,200 -1,140 Descending Boston Center
06:07PM 42.5983 -72.3497 106° East 308 354 14,900 -1,320 Descending Boston Center
06:08PM 42.5731 -72.2231 105° East 327 376 13,600 -1,380 Descending Boston Center
06:09PM 42.5564 -72.1161 102° East 336 387 12,200 -1,440 Descending Boston Center
06:10PM 42.5369 -71.9864 101° East 325 374 10,800 -1,200 Descending Boston Center
06:11PM 42.5306 -71.9075 96° East 312 359 9,800 -900 Descending Boston Center
06:12PM 42.5150 -71.7697 99° East 291 335 9,100 -360 Descending Boston Center
06:13PM 42.5083 -71.6683 95° East 273 314 9,100 -180 Level Boston Center
06:15PM 42.5000 -71.5667 96° East 261 300 8,800 -660 Descending KA90
06:16PM 42.4833 -71.4500 101° East 282 325 7,700 -1,020 Descending KA90
06:17PM 42.5000 -71.3500 77° East 282 325 6,800 -900 Descending KA90
06:18PM 42.5167 -71.2500 77° East 279 321 6,000 -900 Descending KA90
06:19PM 42.5167 -71.1500 90° East 273 314 5,000 -1,020 Descending KA90
06:20PM 42.5333 -71.0500 77° East 271 312 4,000 -1,020 Descending KA90
06:21PM 42.5167 -70.9667 105° East 268 308 3,000 -1,020 Descending KA90
06:22PM 42.4667 -70.9500 166° South 192 221 2,000 -960 Descending KA90
06:23PM 42.4167 -70.9833 206° Southwest 145 167 1,100 -900 Descending KA90
06:24PM 42.3833 -71.0000 200° South 125 144 200 -840 Descending KA90